AirNav   Everest Fuels
 
 923 users online  

61NC Southern Comforts Aerodrome
Parkton, North Carolina, USA

GOING TO PARKTON?


FAA INFORMATION EFFECTIVE 07 NOVEMBER 2019

Location

FAA Identifier: 61NC
Lat/Long: 34-52-16.5900N 078-57-56.1040W
34-52.276500N 078-57.935067W
34.8712750,-78.9655844
(estimated)
Elevation: 175 ft. / 53 m (estimated)
Variation: 07W (1985)
From city: 3 miles SE of PARKTON, NC
Time zone: UTC -5 (UTC -4 during Daylight Saving Time)
Zip code: 28371

Airport Operations

Airport use: Private use. Permission required prior to landing
Activation date: 06/1976
Control tower: no
ARTCC: WASHINGTON CENTER
FSS: RALEIGH FLIGHT SERVICE STATION
Attendance: DAYLIGHT HOURS
Wind indicator: yes
Segmented circle: no

Airport Communications

UNICOM: 122.8
WX ASOS at FAY (8 nm NE): 121.25 (910-484-1546)
WX ASOS at LBT (16 nm S): 134.775 (910-671-1906)

Nearby radio navigation aids

VOR radial/distance  VOR name  Freq  Var
FAYr217/8.2FAYETTEVILLE VOR/DME108.8004W
SDZr127/36.9SANDHILLS VORTAC111.8003W

 
NDB name  Hdg/Dist  Freq  Var  ID
ROBESON025/16.135908WRSY .-. ... -.--
FORT BRAGG212/17.739307WFGP ..-. --. .--.
POPE188/21.333807WPOB .--. --- -...
MACKALL116/27.227806WHFF .... ..-. ..-.
ELIZABETHTOWN321/30.239808WTGQ - --. --.-
CLINTON267/30.341209WCTZ -.-. - --..
DILLON047/32.227409WDLC -.. .-.. -.-.
HARNETT211/36.641708WHQT .... --.- -
CAMP348/38.022707WCPC -.-. .--. -.-.

Airport Services

Fuel available: 100LL
Airframe service: MAJOR
Powerplant service: MAJOR

Runway Information

Runway 1/19

Dimensions: 4000 x 200 ft. / 1219 x 61 m
Surface: turf
RUNWAY 1  RUNWAY 19
Traffic pattern: leftleft
Obstructions: 30 ft. trees30 ft. trees

Airport Ownership and Management from official FAA records

Ownership: Privately-owned
Owner: WILLIAM K. JOHNSON/WALTER MC GILL
391 LITTLE MARSH RD
PARKTON, NC 28371
Phone 910-858-2206
MR. MC GILL RESIDES IN CALIFORNIA AND IS MR. JOHNSON'S UNCLE.
Manager: WILLIAM K. JOHNSON
391 LITTLE MARSH RD
PARKTON, NC 28371
Phone 910-858-2206

Airport Operational Statistics

Aircraft based on the field: 37
Single engine airplanes: 37
    

Additional Remarks

PUBLIC PROVIDED WITH REPAIR SERVICES.
FOR CD CTC WASHINGTON ARTCC AT 703-771-3587.

Instrument Procedures

There are no published instrument procedures at 61NC.

Some nearby airports with instrument procedures:

KFAY - Fayetteville Regional Airport/Grannis Field (8 nm NE)
5W4 - P K Airpark (14 nm NW)
KFBG - Simmons Army Airfield (16 nm N)
KLBT - Lumberton Regional Airport (16 nm S)
KPOB - Pope Army Airfield (18 nm N)
 
Loc | Ops | Rwys | IFR | FBO | Links
Com | Nav | Svcs | Stats | Notes
Area around 61NC (Southern Comforts Aerodrome)
 
Road maps at: MapQuest Bing Google
 
Aerial photo
No photo
 
Sectional chart

 
Airport distance calculator
Flying to Southern Comforts Aerodrome? Find the distance to fly.

From to 61NC

Sunrise and sunset
Times for 11-Nov-2019
 Local
(UTC-5)
 Zulu
(UTC)
Morning civil twilight06:2111:21
Sunrise06:4711:47
Sunset17:1322:13
Evening civil twilight17:3922:39

Current date and time
Zulu (UTC)  12-Nov-2019 01:22:57
Local (UTC-5)  11-Nov-2019 20:22:57
 
METAR
KFAY 
8nm NE 
120053Z 21008KT 10SM CLR 13/03 A3004 RMK AO2 SLP166 T01280033
KFBG 
15nm N 
120056Z AUTO 20006KT 10SM CLR 15/02 A3002 RMK AO2 SLP169 T01510023 $
KPOB 
18nm N 
120056Z AUTO 22009KT 10SM CLR 15/03 A3002 RMK AO2 SLP169 T01520027 $
TAF
KFAY 
8nm NE 
111735Z 1118/1218 21010KT P6SM SCT250 FM120600 21006KT P6SM BKN035 FM121300 27005KT 6SM -RA OVC015 FM121600 32010KT 4SM -RA BR OVC005
KFBG 
15nm N 
111835Z 1118/1224 23009KT 9999 FEW250 QNH3002INS BECMG 1202/1203 24009KT 9999 SCT120 QNH2990INS BECMG 1214/1215 28012KT 8000 -SHRA BKN010 QNH2992INS BECMG 1217/1218 35012G18KT 8000 -RA OVC008 QNH2998INS BECMG 1222/1223 34012KT 9999 NSW BKN015 QNH3002INS TX20/1118Z TN04/1211Z
KLBT 
17nm S 
111721Z 1118/1218 21008KT P6SM SCT250 FM120900 22003KT P6SM SCT150 BKN250 FM121500 29007KT P6SM VCSH BKN025 FM121700 34013KT 6SM -SHRA BKN015 AMD NOT SKED
KPOB 
18nm N 
111830Z 1118/1224 24009KT 9999 FEW250 QNH3002INS BECMG 1202/1203 24009KT 9999 SCT120 QNH2990INS BECMG 1214/1215 28012KT 8000 -SHRA BKN010 QNH2992INS BECMG 1217/1218 35012G18KT 8000 -RA OVC008 QNH2998INS BECMG 1222/1223 34012KT 9999 NSW BKN015 QNH3002INS TX20/1118Z TN04/1211Z
NOTAMs
Click for the latest NOTAMs
NOTAMs are issued by the DoD/FAA and will open in a separate window not controlled by AirNav.

 

 
 

Would you like to see your business listed on this page?

 If your business provides an interesting product or service to pilots, flight crews, aircraft, or users of the Southern Comforts Aerodrome, you should consider listing it here.  To start the listing process, click on the button below
 
Add a business
 

Other Pages about Southern Comforts Aerodrome

users.aol.com/...
 
Update a link
 
Copyright © AirNav, LLC. All rights reserved. Privacy Policy  Contact